KSAR/SAR METAR and TAF weather

Enter ICAO airport designator
Station Type Date Time Source
KSAR METAR 2020/01/27 10:55 UTC NOAA

KSAR 271055Z AUTO 32007KT 2 1/2SM BR OVC003 M01/M01 A2996 RMK AO2 T10121012


Station Type Date Time Source
KSAR Decoded METAR 2020/01/27 10:55 UTC NOAA

Sparta, Sparta Community-Hunter Field Airport, IL, United States (KSAR) 38-08-56N 089-41-55W
Jan 27, 2020 - 05:55 AM EST / 2020.01.27 1055 UTC
Wind: from the NW (320 degrees) at 8 MPH (7 KT):0
Visibility: 2 1/2 mile(s):0
Sky conditions: overcast
Weather: mist
Temperature: 29.8 F (-1.2 C)
Windchill: 23 F (-5 C):1
Dew Point: 29.8 F (-1.2 C)
Relative Humidity: 100%
Pressure (altimeter): 29.96 in. Hg (1014 hPa)
ob: KSAR 271055Z AUTO 32007KT 2 1/2SM BR OVC003 M01/M01 A2996 RMK AO2 T10121012
cycle: 11

Station Type Date Time Source
KSAR TAF UTC NOAA

Error!

Example: see airport list